Austin, Nevada
Current Conditions -  °F | °C
As of 12:56 AM on Wednesday 28 Jan 2015 (Local Time) from KNFL Reporting Station
Clear Clear  
Wind Chill: 33°   Ceiling: Unl
Heat Index: 38°   Visibility: 10mi
Dew Point: 35°   Wind: 6mph
Humidity: 89%   Direction: 160°SSE
Pressure: 30.27"   Gusts: NA
Location:  39.49°N, 117.07°W
Report Text: KNFL 280856Z AUTO 16005KT 10SM CLR 03/02 A3027 RMK AO2 SLP212 T00330017 51006
Loading
Personal Weather Stations






























Interactive Weather Map New forecast layout! Learn more

10-Day Weather Forecast

Advertisements
Track Severe Weather on mobile